createdAt,value
2023-01-22T00:04:38.893Z,5.57
2023-01-22T00:09:46.532Z,5.47
2023-01-22T00:14:51.890Z,5.80
2023-01-22T00:19:56.793Z,7.93
2023-01-22T00:25:05.466Z,5.50
2023-01-22T00:30:12.335Z,5.60
2023-01-22T00:35:17.717Z,5.97
2023-01-22T00:40:26.300Z,7.43
2023-01-22T00:45:31.300Z,5.97
2023-01-22T00:50:41.041Z,32.37
2023-01-22T00:55:56.745Z,8.23
2023-01-22T01:01:01.956Z,8.40
2023-01-22T01:06:09.398Z,8.40
2023-01-22T01:11:18.906Z,7.43
2023-01-22T01:16:26.765Z,7.83
2023-01-22T01:21:32.349Z,6.97
2023-01-22T01:26:41.682Z,9.63
2023-01-22T01:31:47.820Z,7.73
2023-01-22T01:36:52.793Z,8.60
2023-01-22T01:42:01.629Z,7.30
2023-01-22T01:47:09.969Z,6.57
2023-01-22T01:52:16.253Z,7.43
2023-01-22T01:57:27.846Z,8.30
2023-01-22T02:02:34.997Z,6.20
2023-01-22T02:07:41.861Z,6.57
2023-01-22T02:12:49.379Z,6.90
2023-01-22T02:17:54.566Z,6.50
2023-01-22T02:23:02.092Z,6.53
2023-01-22T02:28:07.540Z,8.03
2023-01-22T02:33:12.720Z,9.00
2023-01-22T02:38:22.987Z,7.60
2023-01-22T02:43:30.959Z,6.73
2023-01-22T02:48:36.520Z,8.73
2023-01-22T02:53:44.027Z,7.63
2023-01-22T02:58:49.121Z,9.23
2023-01-22T03:03:56.154Z,8.53
2023-01-22T03:09:04.005Z,10.43
2023-01-22T03:14:25.621Z,10.30
2023-01-22T03:19:44.223Z,9.23
2023-01-22T03:24:58.823Z,9.83
2023-01-22T03:30:04.757Z,10.53
2023-01-22T03:35:12.967Z,12.30
2023-01-22T03:40:35.283Z,12.60
2023-01-22T03:45:40.813Z,11.53
2023-01-22T03:50:49.840Z,13.13
2023-01-22T03:56:07.058Z,12.53
2023-01-22T04:01:17.150Z,12.77
2023-01-22T04:06:24.335Z,12.63
2023-01-22T04:11:31.974Z,10.97
2023-01-22T04:16:37.520Z,13.93
2023-01-22T04:21:42.867Z,13.00
2023-01-22T04:26:52.804Z,13.77
2023-01-22T04:31:58.771Z,13.60
2023-01-22T04:37:26.860Z,12.60
2023-01-22T04:42:37.067Z,13.53
2023-01-22T04:47:44.209Z,12.67
2023-01-22T04:52:49.587Z,15.13
2023-01-22T04:57:58.167Z,14.23
2023-01-22T05:03:06.680Z,14.60
2023-01-22T05:08:11.685Z,12.70
2023-01-22T05:13:19.300Z,12.40
2023-01-22T05:18:24.649Z,13.93
2023-01-22T05:23:30.966Z,13.87
2023-01-22T05:28:38.873Z,14.63
2023-01-22T05:34:07.745Z,15.60
2023-01-22T05:39:12.934Z,14.97
2023-01-22T05:44:21.865Z,11.27
2023-01-22T05:49:30.953Z,12.23
2023-01-22T05:54:37.236Z,12.33
2023-01-22T05:59:45.398Z,14.53
2023-01-22T06:04:52.156Z,12.60
2023-01-22T06:10:01.832Z,14.73
2023-01-22T06:15:11.669Z,15.77
2023-01-22T06:20:21.317Z,19.37
2023-01-22T06:25:27.364Z,17.10
2023-01-22T06:30:51.352Z,14.23
2023-01-22T06:36:00.006Z,19.63
2023-01-22T06:41:05.458Z,14.77
2023-01-22T06:46:17.415Z,18.13
2023-01-22T06:51:36.979Z,12.20
2023-01-22T06:56:42.851Z,11.13
2023-01-22T07:01:51.500Z,12.07
2023-01-22T07:06:56.749Z,14.33
2023-01-22T07:12:01.902Z,14.43
2023-01-22T07:17:10.582Z,12.70
2023-01-22T07:22:15.853Z,15.20
2023-01-22T07:27:24.691Z,12.37
2023-01-22T07:32:32.781Z,15.40
2023-01-22T07:37:37.882Z,14.70
2023-01-22T07:42:42.748Z,16.03
2023-01-22T07:47:58.740Z,15.93
2023-01-22T07:53:04.027Z,19.07
2023-01-22T07:58:10.721Z,20.43
2023-01-22T08:03:26.116Z,15.50
2023-01-22T08:08:33.496Z,18.70
2023-01-22T08:13:38.862Z,18.20
2023-01-22T08:18:48.679Z,20.20
2023-01-22T08:23:53.988Z,20.97
2023-01-22T08:29:04.751Z,20.07
2023-01-22T08:34:16.793Z,21.43
2023-01-22T08:39:22.153Z,22.30
2023-01-22T08:44:29.267Z,23.67
2023-01-22T08:49:37.366Z,26.13
2023-01-22T08:54:43.544Z,27.43
2023-01-22T09:00:00.699Z,33.23
2023-01-22T09:05:10.115Z,27.30
2023-01-22T09:10:15.384Z,25.10
2023-01-22T09:15:20.707Z,21.70
2023-01-22T09:20:28.652Z,22.87
2023-01-22T09:25:35.505Z,26.10
2023-01-22T09:30:44.479Z,25.43
2023-01-22T09:35:55.530Z,30.27
2023-01-22T09:41:11.719Z,26.23
2023-01-22T09:46:24.831Z,30.37
2023-01-22T09:51:34.125Z,28.17
2023-01-22T09:56:44.730Z,32.13
2023-01-22T10:01:54.059Z,23.17
2023-01-22T10:07:07.291Z,29.13
2023-01-22T10:12:16.775Z,26.80
2023-01-22T10:17:31.433Z,24.97
2023-01-22T10:22:42.077Z,24.83
2023-01-22T10:27:54.407Z,25.00
2023-01-22T10:33:05.704Z,27.47
2023-01-22T10:38:25.732Z,27.67
2023-01-22T10:43:36.609Z,22.87
2023-01-22T10:48:44.159Z,22.10
2023-01-22T10:53:55.847Z,19.60
2023-01-22T10:59:09.227Z,19.10
2023-01-22T11:04:16.315Z,15.90
2023-01-22T11:09:32.480Z,14.40
2023-01-22T11:14:40.144Z,17.37
2023-01-22T11:19:48.894Z,17.90
2023-01-22T11:24:56.806Z,20.07
2023-01-22T11:30:48.710Z,17.47
2023-01-22T11:36:00.446Z,22.10
2023-01-22T11:41:26.302Z,26.77
2023-01-22T11:46:54.620Z,22.33
2023-01-22T11:52:11.328Z,25.43
2023-01-22T11:57:26.722Z,28.57
2023-01-22T12:02:57.799Z,29.40
2023-01-22T12:08:25.887Z,23.87
2023-01-22T12:14:04.958Z,19.27
2023-01-22T12:19:47.926Z,19.80
2023-01-22T12:25:00.414Z,21.97
2023-01-22T12:30:19.083Z,22.87
2023-01-22T12:35:29.979Z,21.27
2023-01-22T12:40:51.193Z,26.50
2023-01-22T12:46:02.872Z,21.03
2023-01-22T12:51:08.301Z,18.67
2023-01-22T12:56:14.265Z,16.53
2023-01-22T13:01:37.597Z,17.40
2023-01-22T13:06:47.870Z,22.23
2023-01-22T13:11:52.939Z,20.47
2023-01-22T13:17:05.405Z,21.73
2023-01-22T13:22:19.633Z,20.10
2023-01-22T13:27:28.475Z,22.20
2023-01-22T13:32:36.352Z,20.60
2023-01-22T13:37:47.990Z,18.37
2023-01-22T13:42:53.857Z,19.73
2023-01-22T13:48:06.088Z,18.27
2023-01-22T13:53:31.838Z,17.50
2023-01-22T13:58:48.307Z,19.73
2023-01-22T14:04:04.385Z,19.23
2023-01-22T14:09:10.037Z,25.43
2023-01-22T14:14:20.646Z,25.37
2023-01-22T14:19:29.369Z,22.17
2023-01-22T14:24:37.645Z,24.00
2023-01-22T14:29:42.738Z,18.60
2023-01-22T14:34:50.357Z,15.13
2023-01-22T14:39:57.367Z,19.57
2023-01-22T14:45:04.774Z,17.43
2023-01-22T14:50:19.405Z,16.33
2023-01-22T14:55:25.809Z,13.93
2023-01-22T15:00:31.549Z,15.17
2023-01-22T15:05:41.809Z,12.53
2023-01-22T15:10:48.398Z,16.13
2023-01-22T15:15:54.634Z,18.70
2023-01-22T15:21:04.317Z,15.37
2023-01-22T15:26:15.562Z,15.37
2023-01-22T15:31:21.006Z,17.53
2023-01-22T15:36:33.019Z,17.37
2023-01-22T15:41:39.667Z,14.70
2023-01-22T15:46:46.427Z,16.20
2023-01-22T15:51:54.862Z,13.83
2023-01-22T15:56:59.999Z,11.40
2023-01-22T16:02:07.408Z,10.67
2023-01-22T16:07:17.690Z,13.10
2023-01-22T16:12:22.845Z,12.00
2023-01-22T16:17:27.828Z,11.50
2023-01-22T16:22:35.470Z,16.33
2023-01-22T16:27:41.707Z,18.67
2023-01-22T16:32:46.949Z,16.97
2023-01-22T16:37:56.250Z,20.70
2023-01-22T16:43:03.527Z,21.13
2023-01-22T16:48:09.372Z,16.77
2023-01-22T16:53:16.899Z,16.97
2023-01-22T16:58:25.769Z,22.70
2023-01-22T17:03:31.853Z,18.33
2023-01-22T17:08:39.501Z,20.77
2023-01-22T17:13:46.833Z,19.23
2023-01-22T17:18:51.791Z,25.10
2023-01-22T17:24:00.095Z,23.60
2023-01-22T17:29:13.046Z,22.00
2023-01-22T17:34:18.561Z,25.50
2023-01-22T17:39:28.576Z,24.03
2023-01-22T17:44:34.428Z,22.20
2023-01-22T17:49:39.928Z,23.17
2023-01-22T17:54:49.671Z,23.03
2023-01-22T17:59:54.636Z,24.83
2023-01-22T18:04:59.569Z,24.00
2023-01-22T18:10:07.736Z,22.27
2023-01-22T18:15:14.977Z,24.50
2023-01-22T18:20:21.147Z,22.63
2023-01-22T18:25:29.222Z,18.43
2023-01-22T18:30:35.400Z,19.27
2023-01-22T18:35:41.703Z,18.63
2023-01-22T18:40:50.825Z,18.77
2023-01-22T18:45:57.208Z,19.83
2023-01-22T18:51:02.923Z,17.47
2023-01-22T18:56:13.839Z,15.77
2023-01-22T19:01:21.225Z,14.03
2023-01-22T19:06:28.951Z,14.27
2023-01-22T19:11:40.389Z,12.43
2023-01-22T19:16:48.729Z,12.70
2023-01-22T19:21:58.792Z,9.00
2023-01-22T19:27:08.419Z,13.97
2023-01-22T19:32:17.263Z,10.73
2023-01-22T19:37:25.276Z,11.43
2023-01-22T19:42:33.503Z,9.53
2023-01-22T19:47:39.245Z,10.50
2023-01-22T19:52:48.712Z,11.80
2023-01-22T19:58:00.164Z,11.60
2023-01-22T20:03:09.487Z,12.97
2023-01-22T20:08:17.295Z,13.57
2023-01-22T20:13:25.366Z,14.03
2023-01-22T20:18:33.786Z,19.27
2023-01-22T20:23:39.662Z,14.47
2023-01-22T20:28:50.989Z,16.10
2023-01-22T20:34:03.337Z,16.20
2023-01-22T20:39:11.800Z,15.60
2023-01-22T20:44:23.635Z,14.83
2023-01-22T20:49:29.243Z,17.33
2023-01-22T20:54:50.134Z,16.57
2023-01-22T21:00:08.783Z,17.90
2023-01-22T21:05:14.389Z,13.83
2023-01-22T21:10:22.991Z,16.73
2023-01-22T21:15:33.580Z,14.60
2023-01-22T21:20:41.804Z,15.20
2023-01-22T21:25:50.060Z,19.60
2023-01-22T21:30:59.389Z,18.60
2023-01-22T21:36:05.838Z,18.03
2023-01-22T21:41:13.316Z,19.40
2023-01-22T21:46:28.052Z,20.93
2023-01-22T21:51:34.293Z,22.30
2023-01-22T21:56:39.419Z,23.27
2023-01-22T22:01:50.404Z,25.10
2023-01-22T22:06:58.600Z,25.57
2023-01-22T22:12:04.738Z,27.47
2023-01-22T22:17:15.304Z,23.80
2023-01-22T22:22:22.342Z,32.10
2023-01-22T22:27:27.984Z,26.80
2023-01-22T22:32:36.976Z,27.50
2023-01-22T22:37:41.878Z,32.90
2023-01-22T22:42:48.228Z,31.53
2023-01-22T22:47:56.551Z,30.63
2023-01-22T22:53:02.311Z,36.83
2023-01-22T22:58:09.463Z,29.43
2023-01-22T23:03:17.658Z,30.47
2023-01-22T23:08:24.724Z,32.13
2023-01-22T23:13:31.588Z,33.10
2023-01-22T23:18:41.397Z,34.77
2023-01-22T23:23:46.545Z,34.13
2023-01-22T23:28:55.156Z,34.07
2023-01-22T23:34:04.134Z,35.27
2023-01-22T23:39:12.384Z,34.17
2023-01-22T23:44:17.868Z,36.03
2023-01-22T23:49:26.876Z,33.83
2023-01-22T23:54:31.971Z,35.30
2023-01-22T23:59:41.898Z,35.17
